sensor_id;sensor_type;location;lat;lon;timestamp;temperature;humidity
5930;DHT22;2990;48.746;9.236;2023-07-16T00:00:29;19.00;99.90
5930;DHT22;2990;48.746;9.236;2023-07-16T00:02:54;19.10;99.90
5930;DHT22;2990;48.746;9.236;2023-07-16T00:05:21;19.00;99.90
5930;DHT22;2990;48.746;9.236;2023-07-16T00:07:47;19.00;99.90
5930;DHT22;2990;48.746;9.236;2023-07-16T00:10:12;18.90;99.90
5930;DHT22;2990;48.746;9.236;2023-07-16T00:12:38;18.90;99.90
5930;DHT22;2990;48.746;9.236;2023-07-16T00:15:04;18.80;99.90
5930;DHT22;2990;48.746;9.236;2023-07-16T00:17:31;18.70;99.90
5930;DHT22;2990;48.746;9.236;2023-07-16T00:19:57;18.70;99.90
5930;DHT22;2990;48.746;9.236;2023-07-16T00:22:23;18.70;99.90
5930;DHT22;2990;48.746;9.236;2023-07-16T00:24:48;18.60;99.90
5930;DHT22;2990;48.746;9.236;2023-07-16T00:27:14;18.60;99.90
5930;DHT22;2990;48.746;9.236;2023-07-16T00:29:40;18.60;99.90
5930;DHT22;2990;48.746;9.236;2023-07-16T00:32:05;18.70;99.90
5930;DHT22;2990;48.746;9.236;2023-07-16T00:34:31;18.70;99.90
5930;DHT22;2990;48.746;9.236;2023-07-16T00:36:57;18.70;99.90
5930;DHT22;2990;48.746;9.236;2023-07-16T00:39:27;18.60;99.90
5930;DHT22;2990;48.746;9.236;2023-07-16T00:41:53;18.60;99.90
5930;DHT22;2990;48.746;9.236;2023-07-16T00:44:18;18.40;99.90
5930;DHT22;2990;48.746;9.236;2023-07-16T00:46:44;18.60;99.90
5930;DHT22;2990;48.746;9.236;2023-07-16T00:49:10;18.60;99.90
5930;DHT22;2990;48.746;9.236;2023-07-16T00:51:35;18.60;99.90
5930;DHT22;2990;48.746;9.236;2023-07-16T00:54:01;18.60;99.90
5930;DHT22;2990;48.746;9.236;2023-07-16T00:56:27;18.60;99.90
5930;DHT22;2990;48.746;9.236;2023-07-16T00:58:52;18.60;99.90
5930;DHT22;2990;48.746;9.236;2023-07-16T01:01:18;18.60;99.90
5930;DHT22;2990;48.746;9.236;2023-07-16T01:03:43;18.60;99.90
5930;DHT22;2990;48.746;9.236;2023-07-16T01:06:43;18.60;99.90
5930;DHT22;2990;48.746;9.236;2023-07-16T01:09:17;18.60;99.90
5930;DHT22;2990;48.746;9.236;2023-07-16T01:11:43;18.60;99.90
5930;DHT22;2990;48.746;9.236;2023-07-16T01:14:10;18.70;99.90
5930;DHT22;2990;48.746;9.236;2023-07-16T01:16:36;18.80;99.90
5930;DHT22;2990;48.746;9.236;2023-07-16T01:19:02;18.80;99.90
5930;DHT22;2990;48.746;9.236;2023-07-16T01:21:33;18.80;99.90
5930;DHT22;2990;48.746;9.236;2023-07-16T01:32:10;18.80;99.90
5930;DHT22;2990;48.746;9.236;2023-07-16T01:34:38;18.80;99.90
5930;DHT22;2990;48.746;9.236;2023-07-16T01:37:04;18.80;99.90
5930;DHT22;2990;48.746;9.236;2023-07-16T01:39:31;18.90;99.90
5930;DHT22;2990;48.746;9.236;2023-07-16T01:42:01;18.90;99.90
5930;DHT22;2990;48.746;9.236;2023-07-16T01:44:27;18.90;99.90
5930;DHT22;2990;48.746;9.236;2023-07-16T01:47:14;18.80;99.90
5930;DHT22;2990;48.746;9.236;2023-07-16T01:49:40;18.80;99.90
5930;DHT22;2990;48.746;9.236;2023-07-16T01:52:08;18.70;99.90
5930;DHT22;2990;48.746;9.236;2023-07-16T01:54:34;18.70;99.90
5930;DHT22;2990;48.746;9.236;2023-07-16T01:57:00;18.70;99.90
5930;DHT22;2990;48.746;9.236;2023-07-16T01:59:26;18.60;99.90
5930;DHT22;2990;48.746;9.236;2023-07-16T02:01:51;18.50;99.90
5930;DHT22;2990;48.746;9.236;2023-07-16T02:04:17;18.50;99.90
5930;DHT22;2990;48.746;9.236;2023-07-16T02:06:42;18.50;99.90
5930;DHT22;2990;48.746;9.236;2023-07-16T02:09:09;18.50;99.90
5930;DHT22;2990;48.746;9.236;2023-07-16T02:11:35;18.50;99.90
5930;DHT22;2990;48.746;9.236;2023-07-16T02:14:00;18.50;99.90
5930;DHT22;2990;48.746;9.236;2023-07-16T02:16:26;18.50;99.90
5930;DHT22;2990;48.746;9.236;2023-07-16T02:18:51;18.50;99.90
5930;DHT22;2990;48.746;9.236;2023-07-16T02:21:17;18.40;99.90
5930;DHT22;2990;48.746;9.236;2023-07-16T02:23:42;18.40;99.90
5930;DHT22;2990;48.746;9.236;2023-07-16T02:26:08;18.40;99.90
5930;DHT22;2990;48.746;9.236;2023-07-16T02:28:33;18.40;99.90
5930;DHT22;2990;48.746;9.236;2023-07-16T02:30:59;18.40;99.90
5930;DHT22;2990;48.746;9.236;2023-07-16T02:33:24;18.30;99.90
5930;DHT22;2990;48.746;9.236;2023-07-16T02:35:50;18.30;99.90
5930;DHT22;2990;48.746;9.236;2023-07-16T02:38:17;18.20;98.70
5930;DHT22;2990;48.746;9.236;2023-07-16T02:40:47;18.20;99.90
5930;DHT22;2990;48.746;9.236;2023-07-16T02:43:12;18.10;99.90
5930;DHT22;2990;48.746;9.236;2023-07-16T02:45:38;18.00;99.90
5930;DHT22;2990;48.746;9.236;2023-07-16T02:48:05;18.00;99.90
5930;DHT22;2990;48.746;9.236;2023-07-16T02:50:34;17.90;99.90
5930;DHT22;2990;48.746;9.236;2023-07-16T02:53:00;17.90;99.90
5930;DHT22;2990;48.746;9.236;2023-07-16T02:55:26;17.90;99.90
5930;DHT22;2990;48.746;9.236;2023-07-16T02:57:51;17.90;95.00
5930;DHT22;2990;48.746;9.236;2023-07-16T03:00:17;17.90;83.60
5930;DHT22;2990;48.746;9.236;2023-07-16T03:02:42;17.80;58.70
5930;DHT22;2990;48.746;9.236;2023-07-16T03:05:08;17.70;60.20
5930;DHT22;2990;48.746;9.236;2023-07-16T03:07:33;17.60;85.10
5930;DHT22;2990;48.746;9.236;2023-07-16T03:10:00;17.60;74.50
5930;DHT22;2990;48.746;9.236;2023-07-16T03:12:25;17.60;30.10
5930;DHT22;2990;48.746;9.236;2023-07-16T03:14:51;17.50;1.00
5930;DHT22;2990;48.746;9.236;2023-07-16T03:17:20;17.40;1.00
5930;DHT22;2990;48.746;9.236;2023-07-16T03:19:46;17.40;1.00
5930;DHT22;2990;48.746;9.236;2023-07-16T03:22:11;17.50;1.00
5930;DHT22;2990;48.746;9.236;2023-07-16T03:24:37;17.40;1.00
5930;DHT22;2990;48.746;9.236;2023-07-16T03:27:03;17.40;1.00
5930;DHT22;2990;48.746;9.236;2023-07-16T03:29:28;17.40;1.00
5930;DHT22;2990;48.746;9.236;2023-07-16T03:31:54;17.40;1.00
5930;DHT22;2990;48.746;9.236;2023-07-16T03:34:19;17.30;1.00
5930;DHT22;2990;48.746;9.236;2023-07-16T03:36:45;17.20;1.00
5930;DHT22;2990;48.746;9.236;2023-07-16T03:39:11;17.10;1.00
5930;DHT22;2990;48.746;9.236;2023-07-16T03:41:36;17.00;1.00
5930;DHT22;2990;48.746;9.236;2023-07-16T03:44:02;17.00;21.30
5930;DHT22;2990;48.746;9.236;2023-07-16T03:46:28;16.90;39.30
5930;DHT22;2990;48.746;9.236;2023-07-16T03:48:54;17.00;42.30
5930;DHT22;2990;48.746;9.236;2023-07-16T03:51:19;17.00;18.50
5930;DHT22;2990;48.746;9.236;2023-07-16T03:53:45;16.80;20.20
5930;DHT22;2990;48.746;9.236;2023-07-16T03:56:10;16.90;6.40
5930;DHT22;2990;48.746;9.236;2023-07-16T03:58:36;16.80;1.00
5930;DHT22;2990;48.746;9.236;2023-07-16T04:01:01;16.80;6.90
5930;DHT22;2990;48.746;9.236;2023-07-16T04:03:27;16.90;5.60
5930;DHT22;2990;48.746;9.236;2023-07-16T04:06:01;16.80;9.30
5930;DHT22;2990;48.746;9.236;2023-07-16T04:08:27;16.80;24.90
5930;DHT22;2990;48.746;9.236;2023-07-16T04:10:52;16.80;36.20
5930;DHT22;2990;48.746;9.236;2023-07-16T04:13:18;16.80;53.50
5930;DHT22;2990;48.746;9.236;2023-07-16T04:15:43;16.70;60.30
5930;DHT22;2990;48.746;9.236;2023-07-16T04:18:09;16.80;58.50
5930;DHT22;2990;48.746;9.236;2023-07-16T04:20:34;16.80;59.10
5930;DHT22;2990;48.746;9.236;2023-07-16T04:23:00;16.80;59.20
5930;DHT22;2990;48.746;9.236;2023-07-16T04:25:26;16.80;61.80
5930;DHT22;2990;48.746;9.236;2023-07-16T04:27:51;16.80;60.90
5930;DHT22;2990;48.746;9.236;2023-07-16T04:30:17;16.90;90.90
5930;DHT22;2990;48.746;9.236;2023-07-16T04:32:42;16.90;66.90
5930;DHT22;2990;48.746;9.236;2023-07-16T04:35:08;16.90;51.90
5930;DHT22;2990;48.746;9.236;2023-07-16T04:37:34;16.90;62.30
5930;DHT22;2990;48.746;9.236;2023-07-16T04:39:59;17.00;75.50
5930;DHT22;2990;48.746;9.236;2023-07-16T04:42:25;17.00;72.10
5930;DHT22;2990;48.746;9.236;2023-07-16T04:44:50;17.00;69.80
5930;DHT22;2990;48.746;9.236;2023-07-16T04:47:16;17.10;66.00
5930;DHT22;2990;48.746;9.236;2023-07-16T04:49:41;17.10;50.30
5930;DHT22;2990;48.746;9.236;2023-07-16T04:52:07;17.10;40.00
5930;DHT22;2990;48.746;9.236;2023-07-16T04:54:39;17.10;32.20
5930;DHT22;2990;48.746;9.236;2023-07-16T04:57:06;17.10;37.20
5930;DHT22;2990;48.746;9.236;2023-07-16T04:59:32;17.20;23.20
5930;DHT22;2990;48.746;9.236;2023-07-16T05:01:57;17.10;21.90
5930;DHT22;2990;48.746;9.236;2023-07-16T05:04:23;17.10;27.10
5930;DHT22;2990;48.746;9.236;2023-07-16T05:06:49;17.10;32.50
5930;DHT22;2990;48.746;9.236;2023-07-16T05:09:14;17.20;21.90
5930;DHT22;2990;48.746;9.236;2023-07-16T05:11:40;17.20;15.30
5930;DHT22;2990;48.746;9.236;2023-07-16T05:14:05;17.20;13.70
5930;DHT22;2990;48.746;9.236;2023-07-16T05:16:31;17.20;14.70
5930;DHT22;2990;48.746;9.236;2023-07-16T05:18:56;17.20;18.20
5930;DHT22;2990;48.746;9.236;2023-07-16T05:21:22;17.20;24.70
5930;DHT22;2990;48.746;9.236;2023-07-16T05:23:47;17.20;39.50
5930;DHT22;2990;48.746;9.236;2023-07-16T05:26:13;17.30;51.80
5930;DHT22;2990;48.746;9.236;2023-07-16T05:28:38;17.30;51.90
5930;DHT22;2990;48.746;9.236;2023-07-16T05:31:04;17.30;50.20
5930;DHT22;2990;48.746;9.236;2023-07-16T05:33:29;17.30;83.00
5930;DHT22;2990;48.746;9.236;2023-07-16T05:35:55;17.30;98.30
5930;DHT22;2990;48.746;9.236;2023-07-16T05:38:21;17.30;99.90
5930;DHT22;2990;48.746;9.236;2023-07-16T05:40:46;17.30;99.90
5930;DHT22;2990;48.746;9.236;2023-07-16T05:43:12;17.20;99.90
5930;DHT22;2990;48.746;9.236;2023-07-16T05:45:38;17.20;99.90
5930;DHT22;2990;48.746;9.236;2023-07-16T05:48:04;17.30;99.90
5930;DHT22;2990;48.746;9.236;2023-07-16T05:50:30;17.30;99.90
5930;DHT22;2990;48.746;9.236;2023-07-16T05:52:55;17.30;99.90
5930;DHT22;2990;48.746;9.236;2023-07-16T05:55:21;17.40;99.90
5930;DHT22;2990;48.746;9.236;2023-07-16T05:57:46;17.40;99.90
5930;DHT22;2990;48.746;9.236;2023-07-16T06:00:12;17.40;99.90
5930;DHT22;2990;48.746;9.236;2023-07-16T06:02:39;17.50;99.90
5930;DHT22;2990;48.746;9.236;2023-07-16T06:05:05;17.70;99.90
5930;DHT22;2990;48.746;9.236;2023-07-16T06:07:31;17.80;96.00
5930;DHT22;2990;48.746;9.236;2023-07-16T06:09:57;18.00;74.50
5930;DHT22;2990;48.746;9.236;2023-07-16T06:12:23;18.20;6.30
5930;DHT22;2990;48.746;9.236;2023-07-16T06:14:48;18.10;1.00
5930;DHT22;2990;48.746;9.236;2023-07-16T06:17:14;18.20;1.00
5930;DHT22;2990;48.746;9.236;2023-07-16T06:19:40;18.00;1.00
5930;DHT22;2990;48.746;9.236;2023-07-16T06:22:05;17.90;1.00
5930;DHT22;2990;48.746;9.236;2023-07-16T06:24:31;17.90;1.00
5930;DHT22;2990;48.746;9.236;2023-07-16T06:26:56;17.90;1.00
5930;DHT22;2990;48.746;9.236;2023-07-16T06:29:22;17.80;1.00
5930;DHT22;2990;48.746;9.236;2023-07-16T06:31:55;17.80;1.00
5930;DHT22;2990;48.746;9.236;2023-07-16T06:34:22;17.70;1.00
5930;DHT22;2990;48.746;9.236;2023-07-16T06:36:47;17.70;1.00
5930;DHT22;2990;48.746;9.236;2023-07-16T06:39:13;17.70;1.00
5930;DHT22;2990;48.746;9.236;2023-07-16T06:41:38;17.70;1.00
5930;DHT22;2990;48.746;9.236;2023-07-16T06:44:04;17.70;1.00
5930;DHT22;2990;48.746;9.236;2023-07-16T06:46:29;17.80;1.00
5930;DHT22;2990;48.746;9.236;2023-07-16T06:48:55;17.80;1.00
5930;DHT22;2990;48.746;9.236;2023-07-16T06:51:20;17.80;1.00
5930;DHT22;2990;48.746;9.236;2023-07-16T06:53:47;17.90;1.00
5930;DHT22;2990;48.746;9.236;2023-07-16T06:56:12;18.00;1.00
5930;DHT22;2990;48.746;9.236;2023-07-16T06:58:38;18.10;1.00
5930;DHT22;2990;48.746;9.236;2023-07-16T07:01:03;18.10;1.00
5930;DHT22;2990;48.746;9.236;2023-07-16T07:03:29;18.30;1.00
5930;DHT22;2990;48.746;9.236;2023-07-16T07:05:54;18.20;1.00
5930;DHT22;2990;48.746;9.236;2023-07-16T07:08:20;18.30;1.00
5930;DHT22;2990;48.746;9.236;2023-07-16T07:10:48;18.30;1.00
5930;DHT22;2990;48.746;9.236;2023-07-16T07:13:14;18.50;1.00
5930;DHT22;2990;48.746;9.236;2023-07-16T07:15:41;18.80;1.00
5930;DHT22;2990;48.746;9.236;2023-07-16T07:18:12;19.00;99.90
5930;DHT22;2990;48.746;9.236;2023-07-16T07:20:40;19.20;1.00
5930;DHT22;2990;48.746;9.236;2023-07-16T07:23:05;19.40;99.90
5930;DHT22;2990;48.746;9.236;2023-07-16T07:25:31;19.50;1.00
5930;DHT22;2990;48.746;9.236;2023-07-16T07:27:56;19.70;99.90
5930;DHT22;2990;48.746;9.236;2023-07-16T07:30:22;19.70;99.90
5930;DHT22;2990;48.746;9.236;2023-07-16T07:32:47;19.90;99.90
5930;DHT22;2990;48.746;9.236;2023-07-16T07:35:13;20.00;1.00
5930;DHT22;2990;48.746;9.236;2023-07-16T07:37:39;20.10;1.00
5930;DHT22;2990;48.746;9.236;2023-07-16T07:40:05;20.10;99.90
5930;DHT22;2990;48.746;9.236;2023-07-16T07:42:31;20.20;99.90
5930;DHT22;2990;48.746;9.236;2023-07-16T07:44:56;20.10;85.00
5930;DHT22;2990;48.746;9.236;2023-07-16T07:47:22;20.10;99.90
5930;DHT22;2990;48.746;9.236;2023-07-16T07:49:47;19.90;1.00
5930;DHT22;2990;48.746;9.236;2023-07-16T07:52:13;19.80;99.90
5930;DHT22;2990;48.746;9.236;2023-07-16T07:54:39;19.60;8.00
5930;DHT22;2990;48.746;9.236;2023-07-16T07:57:07;19.50;1.00
5930;DHT22;2990;48.746;9.236;2023-07-16T07:59:32;19.60;1.00
5930;DHT22;2990;48.746;9.236;2023-07-16T08:01:58;19.90;99.90
5930;DHT22;2990;48.746;9.236;2023-07-16T08:04:24;20.00;99.90
5930;DHT22;2990;48.746;9.236;2023-07-16T08:06:52;20.20;99.90
5930;DHT22;2990;48.746;9.236;2023-07-16T08:09:18;20.20;1.00
5930;DHT22;2990;48.746;9.236;2023-07-16T08:11:43;20.10;1.00
5930;DHT22;2990;48.746;9.236;2023-07-16T08:14:09;20.00;99.90
5930;DHT22;2990;48.746;9.236;2023-07-16T08:16:34;19.90;1.00
5930;DHT22;2990;48.746;9.236;2023-07-16T08:19:00;19.90;99.90
5930;DHT22;2990;48.746;9.236;2023-07-16T08:21:25;19.90;1.00
5930;DHT22;2990;48.746;9.236;2023-07-16T08:23:51;20.10;1.00
5930;DHT22;2990;48.746;9.236;2023-07-16T08:26:17;20.20;99.90
5930;DHT22;2990;48.746;9.236;2023-07-16T08:28:42;20.10;1.00
5930;DHT22;2990;48.746;9.236;2023-07-16T08:31:10;20.30;1.00
5930;DHT22;2990;48.746;9.236;2023-07-16T08:33:36;20.60;1.00
5930;DHT22;2990;48.746;9.236;2023-07-16T08:36:01;20.70;1.00
5930;DHT22;2990;48.746;9.236;2023-07-16T08:38:27;20.60;1.00
5930;DHT22;2990;48.746;9.236;2023-07-16T08:40:53;20.50;1.00
5930;DHT22;2990;48.746;9.236;2023-07-16T08:43:18;20.40;1.00
5930;DHT22;2990;48.746;9.236;2023-07-16T08:45:45;20.30;1.00
5930;DHT22;2990;48.746;9.236;2023-07-16T08:48:11;20.50;1.00
5930;DHT22;2990;48.746;9.236;2023-07-16T08:50:37;20.60;1.00
5930;DHT22;2990;48.746;9.236;2023-07-16T08:53:06;20.70;1.00
5930;DHT22;2990;48.746;9.236;2023-07-16T08:55:33;20.70;1.00
5930;DHT22;2990;48.746;9.236;2023-07-16T08:57:59;20.70;1.00
5930;DHT22;2990;48.746;9.236;2023-07-16T09:00:26;20.70;1.00
5930;DHT22;2990;48.746;9.236;2023-07-16T09:02:52;20.70;1.00
5930;DHT22;2990;48.746;9.236;2023-07-16T09:05:22;20.60;1.00
5930;DHT22;2990;48.746;9.236;2023-07-16T09:07:48;20.70;1.00
5930;DHT22;2990;48.746;9.236;2023-07-16T09:10:14;20.90;99.90
5930;DHT22;2990;48.746;9.236;2023-07-16T09:12:43;21.00;99.90
5930;DHT22;2990;48.746;9.236;2023-07-16T09:15:09;21.40;99.90
5930;DHT22;2990;48.746;9.236;2023-07-16T09:17:35;21.60;1.00
5930;DHT22;2990;48.746;9.236;2023-07-16T09:20:03;21.50;99.90
5930;DHT22;2990;48.746;9.236;2023-07-16T09:22:29;21.60;99.90
5930;DHT22;2990;48.746;9.236;2023-07-16T09:24:55;21.70;99.90
5930;DHT22;2990;48.746;9.236;2023-07-16T09:27:28;21.90;99.90
5930;DHT22;2990;48.746;9.236;2023-07-16T09:29:54;22.10;99.90
5930;DHT22;2990;48.746;9.236;2023-07-16T09:32:19;22.40;99.90
5930;DHT22;2990;48.746;9.236;2023-07-16T09:34:45;22.60;99.90
5930;DHT22;2990;48.746;9.236;2023-07-16T09:37:14;22.70;99.90
5930;DHT22;2990;48.746;9.236;2023-07-16T09:39:41;22.80;99.90
5930;DHT22;2990;48.746;9.236;2023-07-16T09:42:07;22.90;99.90
5930;DHT22;2990;48.746;9.236;2023-07-16T09:44:33;23.10;99.90
5930;DHT22;2990;48.746;9.236;2023-07-16T09:46:59;23.20;99.90
5930;DHT22;2990;48.746;9.236;2023-07-16T09:49:28;23.30;99.90
5930;DHT22;2990;48.746;9.236;2023-07-16T09:51:56;23.60;99.90
5930;DHT22;2990;48.746;9.236;2023-07-16T09:54:25;23.60;99.90
5930;DHT22;2990;48.746;9.236;2023-07-16T09:56:55;23.60;79.10
5930;DHT22;2990;48.746;9.236;2023-07-16T09:59:25;23.80;55.50
5930;DHT22;2990;48.746;9.236;2023-07-16T10:01:52;24.00;57.10
5930;DHT22;2990;48.746;9.236;2023-07-16T10:04:19;24.20;13.10
5930;DHT22;2990;48.746;9.236;2023-07-16T10:07:05;24.10;32.40
5930;DHT22;2990;48.746;9.236;2023-07-16T10:12:19;23.90;39.40
5930;DHT22;2990;48.746;9.236;2023-07-16T10:14:49;23.60;62.30
5930;DHT22;2990;48.746;9.236;2023-07-16T10:17:17;23.30;35.10
5930;DHT22;2990;48.746;9.236;2023-07-16T10:19:51;23.50;87.00
5930;DHT22;2990;48.746;9.236;2023-07-16T10:22:18;23.60;68.50
5930;DHT22;2990;48.746;9.236;2023-07-16T10:24:51;23.50;17.80
5930;DHT22;2990;48.746;9.236;2023-07-16T10:27:26;23.80;25.90
5930;DHT22;2990;48.746;9.236;2023-07-16T10:29:52;24.10;2.90
5930;DHT22;2990;48.746;9.236;2023-07-16T10:32:20;24.30;1.00
5930;DHT22;2990;48.746;9.236;2023-07-16T10:34:46;24.60;60.20
5930;DHT22;2990;48.746;9.236;2023-07-16T10:37:11;24.60;23.30
5930;DHT22;2990;48.746;9.236;2023-07-16T10:39:49;24.40;16.50
5930;DHT22;2990;48.746;9.236;2023-07-16T10:42:16;24.40;1.00
5930;DHT22;2990;48.746;9.236;2023-07-16T10:44:49;24.40;6.70
5930;DHT22;2990;48.746;9.236;2023-07-16T10:47:33;24.50;1.00
5930;DHT22;2990;48.746;9.236;2023-07-16T10:50:00;24.20;16.20
5930;DHT22;2990;48.746;9.236;2023-07-16T10:52:26;24.10;1.00
5930;DHT22;2990;48.746;9.236;2023-07-16T10:54:51;24.20;1.00
5930;DHT22;2990;48.746;9.236;2023-07-16T10:57:20;24.50;1.00
5930;DHT22;2990;48.746;9.236;2023-07-16T10:59:46;24.60;1.00
5930;DHT22;2990;48.746;9.236;2023-07-16T11:02:14;24.80;1.00
5930;DHT22;2990;48.746;9.236;2023-07-16T11:04:44;25.00;1.00
5930;DHT22;2990;48.746;9.236;2023-07-16T11:07:11;25.10;1.00
5930;DHT22;2990;48.746;9.236;2023-07-16T11:09:46;25.40;1.00
5930;DHT22;2990;48.746;9.236;2023-07-16T11:12:14;25.60;1.00
5930;DHT22;2990;48.746;9.236;2023-07-16T11:14:50;25.70;1.00
5930;DHT22;2990;48.746;9.236;2023-07-16T11:17:15;25.60;1.00
5930;DHT22;2990;48.746;9.236;2023-07-16T11:19:45;25.20;1.00
5930;DHT22;2990;48.746;9.236;2023-07-16T11:22:11;24.90;1.00
5930;DHT22;2990;48.746;9.236;2023-07-16T11:24:44;24.50;1.00
5930;DHT22;2990;48.746;9.236;2023-07-16T11:27:17;24.40;1.00
5930;DHT22;2990;48.746;9.236;2023-07-16T11:29:53;24.40;1.00
5930;DHT22;2990;48.746;9.236;2023-07-16T11:32:42;24.40;1.00
5930;DHT22;2990;48.746;9.236;2023-07-16T11:35:11;24.20;1.00
5930;DHT22;2990;48.746;9.236;2023-07-16T11:37:40;24.50;1.00
5930;DHT22;2990;48.746;9.236;2023-07-16T11:40:08;24.60;1.00
5930;DHT22;2990;48.746;9.236;2023-07-16T11:42:41;24.50;1.00
5930;DHT22;2990;48.746;9.236;2023-07-16T11:45:20;24.60;1.00
5930;DHT22;2990;48.746;9.236;2023-07-16T11:47:48;24.30;1.00
5930;DHT22;2990;48.746;9.236;2023-07-16T11:50:14;24.40;1.00
5930;DHT22;2990;48.746;9.236;2023-07-16T11:52:40;24.70;1.00
5930;DHT22;2990;48.746;9.236;2023-07-16T11:55:06;24.60;1.00
5930;DHT22;2990;48.746;9.236;2023-07-16T11:57:32;24.50;1.00
5930;DHT22;2990;48.746;9.236;2023-07-16T11:59:57;24.50;1.00
5930;DHT22;2990;48.746;9.236;2023-07-16T12:02:24;24.70;1.00
5930;DHT22;2990;48.746;9.236;2023-07-16T12:04:50;25.00;1.00
5930;DHT22;2990;48.746;9.236;2023-07-16T12:07:34;25.30;1.00
5930;DHT22;2990;48.746;9.236;2023-07-16T12:10:05;25.70;1.00
5930;DHT22;2990;48.746;9.236;2023-07-16T12:12:40;26.00;1.00
5930;DHT22;2990;48.746;9.236;2023-07-16T12:15:07;26.00;1.00
5930;DHT22;2990;48.746;9.236;2023-07-16T12:17:35;25.90;1.00
5930;DHT22;2990;48.746;9.236;2023-07-16T12:20:04;26.00;1.00
5930;DHT22;2990;48.746;9.236;2023-07-16T12:22:30;26.10;1.00
5930;DHT22;2990;48.746;9.236;2023-07-16T12:24:56;26.30;1.00
5930;DHT22;2990;48.746;9.236;2023-07-16T12:27:22;26.40;1.00
5930;DHT22;2990;48.746;9.236;2023-07-16T12:29:47;26.50;1.00
5930;DHT22;2990;48.746;9.236;2023-07-16T12:32:14;26.80;1.00
5930;DHT22;2990;48.746;9.236;2023-07-16T12:34:39;26.80;1.00
5930;DHT22;2990;48.746;9.236;2023-07-16T12:37:05;26.70;1.00
5930;DHT22;2990;48.746;9.236;2023-07-16T12:39:32;26.70;1.00
5930;DHT22;2990;48.746;9.236;2023-07-16T12:41:57;26.70;1.00
5930;DHT22;2990;48.746;9.236;2023-07-16T12:44:23;26.80;1.00
5930;DHT22;2990;48.746;9.236;2023-07-16T12:46:49;26.90;1.00
5930;DHT22;2990;48.746;9.236;2023-07-16T12:49:15;27.00;1.00
5930;DHT22;2990;48.746;9.236;2023-07-16T12:51:41;26.90;1.00
5930;DHT22;2990;48.746;9.236;2023-07-16T12:54:06;26.90;1.00
5930;DHT22;2990;48.746;9.236;2023-07-16T12:56:32;26.70;1.00
5930;DHT22;2990;48.746;9.236;2023-07-16T12:59:00;26.60;1.00
5930;DHT22;2990;48.746;9.236;2023-07-16T13:01:26;26.70;1.00
5930;DHT22;2990;48.746;9.236;2023-07-16T13:03:52;26.70;1.00
5930;DHT22;2990;48.746;9.236;2023-07-16T13:06:17;26.70;1.00
5930;DHT22;2990;48.746;9.236;2023-07-16T13:08:43;26.70;1.00
5930;DHT22;2990;48.746;9.236;2023-07-16T13:11:08;26.90;1.00
5930;DHT22;2990;48.746;9.236;2023-07-16T13:13:34;27.00;1.00
5930;DHT22;2990;48.746;9.236;2023-07-16T13:16:00;26.90;1.00
5930;DHT22;2990;48.746;9.236;2023-07-16T13:18:26;27.10;1.00
5930;DHT22;2990;48.746;9.236;2023-07-16T13:20:51;27.30;1.00
5930;DHT22;2990;48.746;9.236;2023-07-16T13:23:17;27.50;1.00
5930;DHT22;2990;48.746;9.236;2023-07-16T13:25:42;27.50;1.00
5930;DHT22;2990;48.746;9.236;2023-07-16T13:28:08;27.60;1.00
5930;DHT22;2990;48.746;9.236;2023-07-16T13:30:54;27.80;1.00
5930;DHT22;2990;48.746;9.236;2023-07-16T13:33:19;27.80;1.00
5930;DHT22;2990;48.746;9.236;2023-07-16T13:35:45;27.60;1.00
5930;DHT22;2990;48.746;9.236;2023-07-16T13:38:13;27.40;1.00
5930;DHT22;2990;48.746;9.236;2023-07-16T13:40:39;27.10;1.00
5930;DHT22;2990;48.746;9.236;2023-07-16T13:43:05;27.10;1.00
5930;DHT22;2990;48.746;9.236;2023-07-16T13:45:31;27.10;1.00
5930;DHT22;2990;48.746;9.236;2023-07-16T13:47:58;27.40;1.00
5930;DHT22;2990;48.746;9.236;2023-07-16T13:50:24;27.60;1.00
5930;DHT22;2990;48.746;9.236;2023-07-16T13:52:50;27.50;1.00
5930;DHT22;2990;48.746;9.236;2023-07-16T13:56:04;27.10;1.00
5930;DHT22;2990;48.746;9.236;2023-07-16T14:03:25;26.50;1.00
5930;DHT22;2990;48.746;9.236;2023-07-16T14:06:02;26.10;1.00
5930;DHT22;2990;48.746;9.236;2023-07-16T14:08:34;25.90;1.00
5930;DHT22;2990;48.746;9.236;2023-07-16T14:11:08;25.70;1.00
5930;DHT22;2990;48.746;9.236;2023-07-16T14:14:13;25.50;1.00
5930;DHT22;2990;48.746;9.236;2023-07-16T14:16:53;25.40;1.00
5930;DHT22;2990;48.746;9.236;2023-07-16T14:19:25;25.40;1.00
5930;DHT22;2990;48.746;9.236;2023-07-16T14:21:56;25.30;1.00
5930;DHT22;2990;48.746;9.236;2023-07-16T14:24:22;25.30;1.00
5930;DHT22;2990;48.746;9.236;2023-07-16T14:26:48;25.20;1.00
5930;DHT22;2990;48.746;9.236;2023-07-16T14:29:25;25.00;1.00
5930;DHT22;2990;48.746;9.236;2023-07-16T14:31:52;24.90;1.00
5930;DHT22;2990;48.746;9.236;2023-07-16T14:34:18;24.70;1.00
5930;DHT22;2990;48.746;9.236;2023-07-16T14:36:43;24.80;1.00
5930;DHT22;2990;48.746;9.236;2023-07-16T14:39:09;24.70;1.00
5930;DHT22;2990;48.746;9.236;2023-07-16T14:41:35;24.70;1.00
5930;DHT22;2990;48.746;9.236;2023-07-16T14:44:04;24.70;1.00
5930;DHT22;2990;48.746;9.236;2023-07-16T14:46:30;24.70;1.00
5930;DHT22;2990;48.746;9.236;2023-07-16T14:48:56;24.70;1.00
5930;DHT22;2990;48.746;9.236;2023-07-16T14:51:23;24.80;1.00
5930;DHT22;2990;48.746;9.236;2023-07-16T14:53:50;24.90;1.00
5930;DHT22;2990;48.746;9.236;2023-07-16T14:56:15;24.90;1.00
5930;DHT22;2990;48.746;9.236;2023-07-16T14:58:41;25.00;1.00
5930;DHT22;2990;48.746;9.236;2023-07-16T15:01:06;25.10;1.00
5930;DHT22;2990;48.746;9.236;2023-07-16T15:03:35;25.10;1.00
5930;DHT22;2990;48.746;9.236;2023-07-16T15:06:01;25.30;1.00
5930;DHT22;2990;48.746;9.236;2023-07-16T15:08:27;25.10;1.00
5930;DHT22;2990;48.746;9.236;2023-07-16T15:10:55;25.10;1.00
5930;DHT22;2990;48.746;9.236;2023-07-16T15:13:22;25.00;1.00
5930;DHT22;2990;48.746;9.236;2023-07-16T15:15:51;25.00;1.00
5930;DHT22;2990;48.746;9.236;2023-07-16T15:18:21;24.90;1.00
5930;DHT22;2990;48.746;9.236;2023-07-16T15:20:56;24.80;1.00
5930;DHT22;2990;48.746;9.236;2023-07-16T15:23:24;24.60;1.00
5930;DHT22;2990;48.746;9.236;2023-07-16T15:26:02;24.50;1.00
5930;DHT22;2990;48.746;9.236;2023-07-16T15:28:31;24.50;1.00
5930;DHT22;2990;48.746;9.236;2023-07-16T15:31:02;24.40;1.00
5930;DHT22;2990;48.746;9.236;2023-07-16T15:33:28;24.30;1.00
5930;DHT22;2990;48.746;9.236;2023-07-16T15:35:55;24.20;1.00
5930;DHT22;2990;48.746;9.236;2023-07-16T15:38:22;24.50;1.00
5930;DHT22;2990;48.746;9.236;2023-07-16T15:40:47;24.80;1.00
5930;DHT22;2990;48.746;9.236;2023-07-16T15:43:17;25.50;1.00
5930;DHT22;2990;48.746;9.236;2023-07-16T15:45:45;25.70;1.00
5930;DHT22;2990;48.746;9.236;2023-07-16T15:48:14;25.60;1.00
5930;DHT22;2990;48.746;9.236;2023-07-16T15:50:40;25.50;1.00
5930;DHT22;2990;48.746;9.236;2023-07-16T15:53:06;25.30;1.00
5930;DHT22;2990;48.746;9.236;2023-07-16T15:55:31;25.10;1.00
5930;DHT22;2990;48.746;9.236;2023-07-16T15:58:03;25.00;1.00
5930;DHT22;2990;48.746;9.236;2023-07-16T16:00:29;25.00;1.00
5930;DHT22;2990;48.746;9.236;2023-07-16T16:03:12;24.90;1.00
5930;DHT22;2990;48.746;9.236;2023-07-16T16:05:56;24.70;1.00
5930;DHT22;2990;48.746;9.236;2023-07-16T16:08:24;24.70;1.00
5930;DHT22;2990;48.746;9.236;2023-07-16T16:11:09;24.70;1.00
5930;DHT22;2990;48.746;9.236;2023-07-16T16:13:34;24.90;1.00
5930;DHT22;2990;48.746;9.236;2023-07-16T16:16:03;25.10;1.00
5930;DHT22;2990;48.746;9.236;2023-07-16T16:18:28;25.20;1.00
5930;DHT22;2990;48.746;9.236;2023-07-16T16:20:57;25.30;1.00
5930;DHT22;2990;48.746;9.236;2023-07-16T16:23:26;25.70;1.00
5930;DHT22;2990;48.746;9.236;2023-07-16T16:25:52;25.90;1.00